Time;durP1;ratioP1;P1;durP2;ratioP2;P2;SDS_P1;SDS_P2;PMS_P1;PMS_P2;Temp;Humidity;BMP_temperature;BMP_pressure;BME280_temperature;BME280_humidity;BME280_pressure;Samples;Min_cycle;Max_cycle;Signal;HPM_P1;HPM_P2
2022/05/24 00:01:20;;;;;;;;;;;12.30;73.00;;;;;;5071280;28;19912;-72
2022/05/24 00:03:46;;;;;;;;;;;12.20;73.10;;;;;;5089096;28;19923;-72
2022/05/24 00:06:12;;;;;;;;;;;12.10;73.00;;;;;;5071073;28;19976;-72
2022/05/24 00:08:38;;;;;;;;;;;12.00;73.10;;;;;;5089036;28;19919;-71
2022/05/24 00:11:03;;;;;;;;;;;12.00;73.30;;;;;;5071012;28;20362;-71
2022/05/24 00:13:29;;;;;;;;;;;12.00;74.10;;;;;;5088948;28;19916;-71
2022/05/24 00:15:54;;;;;;;;;;;11.90;73.70;;;;;;5070889;28;20314;-71
2022/05/24 00:18:25;;;;;;;;;;;11.90;73.90;;;;;;5088884;28;19920;-71
2022/05/24 00:20:52;;;;;;;;;;;11.80;73.80;;;;;;5089237;28;20243;-71
2022/05/24 00:23:18;;;;;;;;;;;11.80;73.70;;;;;;5088828;28;19966;-71
2022/05/24 00:25:45;;;;;;;;;;;11.80;73.70;;;;;;5088921;28;19912;-72
2022/05/24 00:28:12;;;;;;;;;;;11.80;73.80;;;;;;5088658;28;20012;-72
2022/05/24 00:30:37;;;;;;;;;;;11.80;74.00;;;;;;5088676;28;19973;-71
2022/05/24 00:33:03;;;;;;;;;;;11.80;74.00;;;;;;5070434;28;20350;-71
2022/05/24 00:35:29;;;;;;;;;;;11.90;74.00;;;;;;5088754;28;20021;-71
2022/05/24 00:37:55;;;;;;;;;;;12.00;74.00;;;;;;5070338;28;19916;-72
2022/05/24 00:40:26;;;;;;;;;;;12.00;73.90;;;;;;5088726;28;19918;-71
2022/05/24 00:42:52;;;;;;;;;;;12.10;74.00;;;;;;5088638;28;19908;-72
2022/05/24 00:45:29;;;;;;;;;;;12.20;74.00;;;;;;5088425;28;19916;-71
2022/05/24 00:48:00;;;;;;;;;;;12.20;73.90;;;;;;5087759;28;19927;-71
2022/05/24 00:50:30;;;;;;;;;;;12.20;73.90;;;;;;5070017;28;19970;-72
2022/05/24 00:53:01;;;;;;;;;;;12.30;74.00;;;;;;5088474;28;19908;-71
2022/05/24 00:55:29;;;;;;;;;;;12.30;74.00;;;;;;5088395;28;19912;-72
2022/05/24 00:57:59;;;;;;;;;;;12.30;74.00;;;;;;5088224;28;19912;-71
2022/05/24 01:00:24;;;;;;;;;;;12.30;74.00;;;;;;5088259;28;19912;-71
2022/05/24 01:02:50;;;;;;;;;;;12.30;73.90;;;;;;5088348;28;19924;-72
2022/05/24 01:05:17;;;;;;;;;;;12.40;74.00;;;;;;5088133;28;19908;-71
2022/05/24 01:07:43;;;;;;;;;;;12.40;74.10;;;;;;5070118;28;19908;-72
2022/05/24 01:10:10;;;;;;;;;;;12.40;74.10;;;;;;5088176;28;19939;-72
2022/05/24 01:12:38;;;;;;;;;;;12.40;74.10;;;;;;5088116;28;19927;-72
2022/05/24 01:15:04;;;;;;;;;;;12.50;74.20;;;;;;5088040;28;19911;-72
2022/05/24 01:17:30;;;;;;;;;;;12.50;74.20;;;;;;5088034;28;20342;-72
2022/05/24 01:19:56;;;;;;;;;;;12.50;74.20;;;;;;5088021;28;19916;-71
2022/05/24 01:22:30;;;;;;;;;;;12.50;74.20;;;;;;5088076;28;19908;-72
2022/05/24 01:25:02;;;;;;;;;;;12.50;74.30;;;;;;5087996;28;20246;-71
2022/05/24 01:27:28;;;;;;;;;;;12.50;74.40;;;;;;5087958;28;19912;-72
2022/05/24 01:29:53;;;;;;;;;;;12.50;74.40;;;;;;5088146;28;19938;-71
2022/05/24 01:37:48;;;;;;;;;;;12.50;74.60;;;;;;5088096;28;20053;-71
2022/05/24 01:40:13;;;;;;;;;;;12.50;74.80;;;;;;5088009;28;20379;-72
2022/05/24 01:42:39;;;;;;;;;;;12.50;74.80;;;;;;5069753;28;19999;-71
2022/05/24 01:45:09;;;;;;;;;;;12.50;74.90;;;;;;5087774;28;20001;-72
2022/05/24 01:47:35;;;;;;;;;;;12.50;74.90;;;;;;5087639;28;19969;-71
2022/05/24 01:50:06;;;;;;;;;;;12.50;75.00;;;;;;5087731;28;19919;-71
2022/05/24 01:52:34;;;;;;;;;;;12.50;74.90;;;;;;5087798;28;19912;-72
2022/05/24 01:55:03;;;;;;;;;;;12.50;75.00;;;;;;5087649;28;19912;-72
2022/05/24 01:57:40;;;;;;;;;;;12.50;75.00;;;;;;5087699;28;19919;-71
2022/05/24 02:00:07;;;;;;;;;;;12.50;75.10;;;;;;5089099;28;19919;-71
2022/05/24 02:02:33;;;;;;;;;;;12.50;75.10;;;;;;5091475;28;19912;-71
2022/05/24 02:04:59;;;;;;;;;;;12.50;75.20;;;;;;5091498;28;20267;-72
2022/05/24 02:07:25;;;;;;;;;;;12.50;75.20;;;;;;5073269;28;19917;-72
2022/05/24 02:09:53;;;;;;;;;;;12.50;75.70;;;;;;5091341;28;20362;-71
2022/05/24 02:12:28;;;;;;;;;;;12.50;75.60;;;;;;5091274;28;19961;-71
2022/05/24 02:14:56;;;;;;;;;;;12.40;75.50;;;;;;5091279;28;20328;-72
2022/05/24 02:17:42;;;;;;;;;;;12.40;75.60;;;;;;5073050;28;20004;-72
2022/05/24 02:20:12;;;;;;;;;;;12.50;75.70;;;;;;5090510;28;20391;-72
2022/05/24 02:22:38;;;;;;;;;;;12.40;75.60;;;;;;5091055;28;19926;-72
2022/05/24 02:25:06;;;;;;;;;;;12.50;75.80;;;;;;5091231;28;20018;-72
2022/05/24 02:27:37;;;;;;;;;;;12.40;75.70;;;;;;5091029;28;19951;-72
2022/05/24 02:30:03;;;;;;;;;;;12.40;75.70;;;;;;5091000;28;20022;-72
2022/05/24 02:32:28;;;;;;;;;;;12.40;75.70;;;;;;5072836;28;19962;-71
2022/05/24 02:34:54;;;;;;;;;;;12.40;75.70;;;;;;5072970;28;19912;-72
2022/05/24 02:37:20;;;;;;;;;;;12.40;75.70;;;;;;5090842;28;19952;-72
2022/05/24 02:42:30;;;;;;;;;;;12.40;75.80;;;;;;5091117;28;20282;-72
2022/05/24 02:44:56;;;;;;;;;;;12.40;75.90;;;;;;5090462;28;19934;-72
2022/05/24 02:47:22;;;;;;;;;;;12.40;76.00;;;;;;5090685;28;19912;-72
2022/05/24 02:49:48;;;;;;;;;;;12.40;76.00;;;;;;5090673;28;19946;-72
2022/05/24 02:52:14;;;;;;;;;;;12.40;76.00;;;;;;5090758;28;20008;-72
2022/05/24 02:54:40;;;;;;;;;;;12.30;76.10;;;;;;5090589;28;19908;-72
2022/05/24 02:57:06;;;;;;;;;;;12.30;76.10;;;;;;5090347;28;19935;-72
2022/05/24 02:59:33;;;;;;;;;;;12.30;76.30;;;;;;5090405;28;19959;-72
2022/05/24 03:01:59;;;;;;;;;;;12.20;76.30;;;;;;5090570;28;19916;-72
2022/05/24 03:04:24;;;;;;;;;;;12.20;76.50;;;;;;5090480;28;19912;-72
2022/05/24 03:09:35;;;;;;;;;;;12.00;76.60;;;;;;5090612;28;20007;-72
2022/05/24 03:14:45;;;;;;;;;;;12.00;76.90;;;;;;5090599;28;19919;-72
2022/05/24 03:17:10;;;;;;;;;;;12.00;77.00;;;;;;5090080;28;19915;-72
2022/05/24 03:19:36;;;;;;;;;;;12.00;77.10;;;;;;5090062;28;19920;-72
2022/05/24 03:22:02;;;;;;;;;;;12.00;77.10;;;;;;5090090;28;19919;-72
2022/05/24 03:24:27;;;;;;;;;;;12.00;77.40;;;;;;5071837;28;19908;-72
2022/05/24 03:26:53;;;;;;;;;;;12.00;77.40;;;;;;5089871;28;19916;-72
2022/05/24 03:29:18;;;;;;;;;;;12.00;77.40;;;;;;5090025;28;19918;-72
2022/05/24 03:31:44;;;;;;;;;;;12.00;77.50;;;;;;5090013;28;19912;-72
2022/05/24 03:34:09;;;;;;;;;;;12.00;77.50;;;;;;5089833;28;19915;-71
2022/05/24 03:36:35;;;;;;;;;;;12.00;77.50;;;;;;5089694;28;19994;-72
2022/05/24 03:39:01;;;;;;;;;;;12.00;77.60;;;;;;5089761;28;19920;-71
2022/05/24 03:41:26;;;;;;;;;;;12.00;77.70;;;;;;5089647;28;19924;-72
2022/05/24 03:43:52;;;;;;;;;;;12.00;77.70;;;;;;5089734;28;19919;-71
2022/05/24 03:46:18;;;;;;;;;;;12.00;77.80;;;;;;5089497;28;19916;-72
2022/05/24 03:48:44;;;;;;;;;;;12.00;77.90;;;;;;5071010;28;19965;-71
2022/05/24 03:51:09;;;;;;;;;;;11.90;77.70;;;;;;5089383;28;20502;-71
2022/05/24 03:53:35;;;;;;;;;;;11.90;77.90;;;;;;5089440;28;20014;-72
2022/05/24 03:56:01;;;;;;;;;;;12.00;78.20;;;;;;5089425;28;19916;-71
2022/05/24 03:58:26;;;;;;;;;;;11.90;78.20;;;;;;5088934;28;19927;-72
2022/05/24 04:00:52;;;;;;;;;;;11.90;78.30;;;;;;5088992;28;20337;-72
2022/05/24 04:03:18;;;;;;;;;;;11.90;78.40;;;;;;5088989;28;19912;-72
2022/05/24 04:05:44;;;;;;;;;;;11.90;78.60;;;;;;5070951;28;19912;-72
2022/05/24 04:08:10;;;;;;;;;;;11.80;78.50;;;;;;5089108;28;19916;-72
2022/05/24 04:10:35;;;;;;;;;;;11.90;78.50;;;;;;5089297;28;19908;-72
2022/05/24 04:13:01;;;;;;;;;;;11.90;78.70;;;;;;5089234;28;19976;-73
2022/05/24 04:15:27;;;;;;;;;;;11.90;78.80;;;;;;5089160;28;19916;-72
2022/05/24 04:17:53;;;;;;;;;;;11.90;79.00;;;;;;5088815;28;20400;-72
2022/05/24 04:20:20;;;;;;;;;;;11.90;79.00;;;;;;5088977;28;19908;-72
2022/05/24 04:22:45;;;;;;;;;;;11.90;79.20;;;;;;5088829;28;19953;-72
2022/05/24 04:25:12;;;;;;;;;;;11.90;79.20;;;;;;5070764;28;19912;-72
2022/05/24 04:27:37;;;;;;;;;;;11.90;79.30;;;;;;5088639;28;19924;-72
2022/05/24 04:30:04;;;;;;;;;;;11.90;79.40;;;;;;5088849;28;20354;-72
2022/05/24 04:32:30;;;;;;;;;;;12.00;79.30;;;;;;5088693;28;19915;-72
2022/05/24 04:34:55;;;;;;;;;;;12.00;79.30;;;;;;5088545;28;20099;-72
2022/05/24 04:37:21;;;;;;;;;;;12.00;79.30;;;;;;5088457;28;19922;-72
2022/05/24 04:39:47;;;;;;;;;;;12.00;79.30;;;;;;5088504;28;19973;-72
2022/05/24 04:42:18;;;;;;;;;;;12.00;79.30;;;;;;5088728;28;20368;-72
2022/05/24 04:44:49;;;;;;;;;;;12.10;79.50;;;;;;5088554;28;19912;-73
2022/05/24 04:47:14;;;;;;;;;;;12.00;79.40;;;;;;5088322;28;20354;-72
2022/05/24 04:49:42;;;;;;;;;;;12.00;79.50;;;;;;5088251;28;19927;-72
2022/05/24 04:52:08;;;;;;;;;;;12.00;79.60;;;;;;5088279;28;19962;-72
2022/05/24 04:54:34;;;;;;;;;;;12.10;79.70;;;;;;5088421;28;19915;-72
2022/05/24 04:56:59;;;;;;;;;;;12.00;79.70;;;;;;5088191;28;19908;-72
2022/05/24 04:59:25;;;;;;;;;;;12.10;79.70;;;;;;5088160;28;19920;-72
2022/05/24 05:01:51;;;;;;;;;;;12.10;79.80;;;;;;5070229;28;19944;-72
2022/05/24 05:04:17;;;;;;;;;;;12.20;79.90;;;;;;5088311;28;19916;-72
2022/05/24 05:06:43;;;;;;;;;;;12.20;79.80;;;;;;5088206;28;20007;-72
2022/05/24 05:09:09;;;;;;;;;;;12.20;79.80;;;;;;5070067;28;20003;-72
2022/05/24 05:11:35;;;;;;;;;;;12.20;79.80;;;;;;5088180;28;19915;-72
2022/05/24 05:14:00;;;;;;;;;;;12.30;79.90;;;;;;5088139;28;19913;-72
2022/05/24 05:16:26;;;;;;;;;;;12.30;80.00;;;;;;5070036;28;20376;-72
2022/05/24 05:18:52;;;;;;;;;;;12.40;80.00;;;;;;5087927;28;20273;-71
2022/05/24 05:21:17;;;;;;;;;;;12.30;80.10;;;;;;5087979;28;20354;-72
2022/05/24 05:23:43;;;;;;;;;;;12.40;80.10;;;;;;5070074;28;19912;-72
2022/05/24 05:26:08;;;;;;;;;;;12.30;80.10;;;;;;5088146;28;19915;-72
2022/05/24 05:28:34;;;;;;;;;;;12.30;80.30;;;;;;5053034;28;19912;-72
2022/05/24 05:31:19;;;;;;;;;;;12.30;80.30;;;;;;5087863;28;20366;-72
2022/05/24 05:33:47;;;;;;;;;;;12.30;80.40;;;;;;5055765;28;19922;-72
2022/05/24 05:36:13;;;;;;;;;;;12.40;80.60;;;;;;5072991;28;19908;-72
2022/05/24 05:38:45;;;;;;;;;;;12.50;80.80;;;;;;5091867;28;19995;-72
2022/05/24 05:41:11;;;;;;;;;;;12.60;80.80;;;;;;5091996;28;19971;-72
2022/05/24 05:43:37;;;;;;;;;;;12.60;80.70;;;;;;5091980;28;20283;-72
2022/05/24 05:46:03;;;;;;;;;;;12.70;80.90;;;;;;5091601;28;19912;-72
2022/05/24 05:48:29;;;;;;;;;;;12.70;81.00;;;;;;5091462;28;19973;-72
2022/05/24 05:50:55;;;;;;;;;;;12.70;81.00;;;;;;5091555;28;20358;-72
2022/05/24 05:53:21;;;;;;;;;;;12.80;81.00;;;;;;5091768;28;20354;-72
2022/05/24 05:55:46;;;;;;;;;;;12.90;80.90;;;;;;5091364;28;19932;-72
2022/05/24 05:58:12;;;;;;;;;;;13.00;80.80;;;;;;5091153;28;19916;-71
2022/05/24 06:00:39;;;;;;;;;;;13.10;80.80;;;;;;5072690;28;19981;-72
2022/05/24 06:03:05;;;;;;;;;;;13.10;80.70;;;;;;5091371;28;19908;-72
2022/05/24 06:05:31;;;;;;;;;;;13.30;80.70;;;;;;5091395;28;19909;-72
2022/05/24 06:07:57;;;;;;;;;;;13.40;80.50;;;;;;5090952;28;19912;-66
2022/05/24 06:10:23;;;;;;;;;;;13.50;80.40;;;;;;5091035;28;19908;-72
2022/05/24 06:12:49;;;;;;;;;;;13.60;80.70;;;;;;5072922;28;19958;-72
2022/05/24 06:15:14;;;;;;;;;;;13.80;80.20;;;;;;5091120;28;19911;-72
2022/05/24 06:17:44;;;;;;;;;;;13.80;80.10;;;;;;5091030;28;20274;-72
2022/05/24 06:20:09;;;;;;;;;;;14.00;80.00;;;;;;5073035;28;19927;-72
2022/05/24 06:22:35;;;;;;;;;;;14.20;79.90;;;;;;5090835;28;19912;-73
2022/05/24 06:25:00;;;;;;;;;;;14.40;79.50;;;;;;5090802;28;19912;-72
2022/05/24 06:27:26;;;;;;;;;;;14.50;79.20;;;;;;5090885;28;19924;-72
2022/05/24 06:29:51;;;;;;;;;;;14.50;79.00;;;;;;5090469;28;19966;-72
2022/05/24 06:32:17;;;;;;;;;;;14.40;78.90;;;;;;5090395;28;19916;-72
2022/05/24 06:34:43;;;;;;;;;;;14.40;79.10;;;;;;5090546;28;19908;-73
2022/05/24 06:37:08;;;;;;;;;;;14.50;78.90;;;;;;5089953;28;19978;-72
2022/05/24 06:39:34;;;;;;;;;;;14.70;78.80;;;;;;5090441;28;19965;-72
2022/05/24 06:42:00;;;;;;;;;;;14.70;78.60;;;;;;5090454;28;19912;-72
2022/05/24 06:44:25;;;;;;;;;;;14.80;78.60;;;;;;5090341;28;19965;-72
2022/05/24 06:46:51;;;;;;;;;;;14.80;78.50;;;;;;5071272;28;19942;-72
2022/05/24 06:49:16;;;;;;;;;;;15.00;78.90;;;;;;5072030;28;20344;-72
2022/05/24 06:51:43;;;;;;;;;;;16.00;80.00;;;;;;5071873;28;19923;-72
2022/05/24 06:54:08;;;;;;;;;;;17.80;77.80;;;;;;5089652;28;19943;-73
2022/05/24 06:56:34;;;;;;;;;;;18.60;75.20;;;;;;5089758;28;20393;-73
2022/05/24 07:04:28;;;;;;;;;;;20.20;71.00;;;;;;5089674;28;19996;-72
2022/05/24 07:06:53;;;;;;;;;;;19.80;70.50;;;;;;5071239;28;20378;-72
2022/05/24 07:09:19;;;;;;;;;;;19.40;71.10;;;;;;5071578;28;19966;-74
2022/05/24 07:11:44;;;;;;;;;;;19.20;71.50;;;;;;5089545;28;19912;-73
2022/05/24 07:14:10;;;;;;;;;;;18.90;71.30;;;;;;5089302;28;19908;-73
2022/05/24 07:16:36;;;;;;;;;;;18.50;71.10;;;;;;5089322;28;20357;-73
2022/05/24 07:19:01;;;;;;;;;;;18.20;71.40;;;;;;5088935;28;19924;-73
2022/05/24 07:21:27;;;;;;;;;;;17.80;71.90;;;;;;5070700;28;19908;-73
2022/05/24 07:23:52;;;;;;;;;;;17.70;72.30;;;;;;5071235;28;19912;-73
2022/05/24 07:26:21;;;;;;;;;;;17.60;72.60;;;;;;5071083;28;20312;-72
2022/05/24 07:28:47;;;;;;;;;;;17.60;73.10;;;;;;5070610;28;20294;-73
2022/05/24 07:31:12;;;;;;;;;;;17.80;73.00;;;;;;5071186;28;19930;-73
2022/05/24 07:33:38;;;;;;;;;;;17.90;73.00;;;;;;5088989;28;20017;-73
2022/05/24 07:36:04;;;;;;;;;;;18.20;72.20;;;;;;5088691;28;19995;-73
2022/05/24 07:38:30;;;;;;;;;;;18.10;72.10;;;;;;5088785;28;20276;-73
2022/05/24 07:46:24;;;;;;;;;;;17.90;72.50;;;;;;5088823;28;19965;-72
2022/05/24 07:48:50;;;;;;;;;;;18.00;72.40;;;;;;5088357;28;19941;-72
2022/05/24 07:51:16;;;;;;;;;;;17.90;71.90;;;;;;5088625;28;19974;-71
2022/05/24 07:53:41;;;;;;;;;;;17.70;71.90;;;;;;5088595;28;19912;-72
2022/05/24 07:56:07;;;;;;;;;;;17.50;72.10;;;;;;5088358;28;19955;-71
2022/05/24 07:58:32;;;;;;;;;;;17.50;72.60;;;;;;5087861;28;19972;-72
2022/05/24 08:00:58;;;;;;;;;;;17.60;72.20;;;;;;5088534;28;20242;-72
2022/05/24 08:03:24;;;;;;;;;;;17.80;72.20;;;;;;5087889;28;19999;-72
2022/05/24 08:05:50;;;;;;;;;;;18.00;72.00;;;;;;5069588;28;19920;-72
2022/05/24 08:08:17;;;;;;;;;;;18.30;72.80;;;;;;5070037;28;19908;-72
2022/05/24 08:10:43;;;;;;;;;;;18.80;72.50;;;;;;5089427;28;19923;-71
2022/05/24 08:13:11;;;;;;;;;;;19.50;72.50;;;;;;5088471;28;19909;-72
2022/05/24 08:15:37;;;;;;;;;;;20.30;71.80;;;;;;5069616;28;20018;-72
2022/05/24 08:18:03;;;;;;;;;;;21.20;70.90;;;;;;5087994;28;19912;-72
2022/05/24 08:20:29;;;;;;;;;;;22.20;70.50;;;;;;5087461;28;20356;-72
2022/05/24 08:22:55;;;;;;;;;;;22.70;68.40;;;;;;5086403;28;20021;-72
2022/05/24 08:25:21;;;;;;;;;;;22.90;67.80;;;;;;5088881;28;20019;-73
2022/05/24 08:27:46;;;;;;;;;;;23.20;68.30;;;;;;5080078;28;19920;-73
2022/05/24 08:30:13;;;;;;;;;;;23.90;67.70;;;;;;5077839;28;20249;-73
2022/05/24 08:32:39;;;;;;;;;;;24.60;68.30;;;;;;5079536;28;20259;-73
2022/05/24 08:35:05;;;;;;;;;;;25.40;68.60;;;;;;5098114;28;20174;-73
2022/05/24 08:37:30;;;;;;;;;;;26.50;68.20;;;;;;5098487;28;20122;-73
2022/05/24 08:39:58;;;;;;;;;;;27.40;68.40;;;;;;5097145;28;20263;-73
2022/05/24 08:42:32;;;;;;;;;;;28.30;66.70;;;;;;5096782;28;20372;-73
2022/05/24 08:50:31;;;;;;;;;;;28.50;65.00;;;;;;5098472;28;19922;-73
2022/05/24 08:53:00;;;;;;;;;;;28.90;63.70;;;;;;5097067;28;20007;-73
2022/05/24 08:55:27;;;;;;;;;;;29.20;62.90;;;;;;5095839;28;20423;-73
2022/05/24 08:57:54;;;;;;;;;;;29.30;62.30;;;;;;5095963;28;20135;-73
2022/05/24 09:00:39;;;;;;;;;;;29.20;60.70;;;;;;5096877;28;19908;-72
2022/05/24 09:03:06;;;;;;;;;;;29.00;59.80;;;;;;5097082;28;19953;-72
2022/05/24 09:05:46;;;;;;;;;;;29.40;60.90;;;;;;5095790;28;20362;-72
2022/05/24 09:08:11;;;;;;;;;;;29.90;60.60;;;;;;5096398;28;19951;-71
2022/05/24 09:10:49;;;;;;;;;;;30.30;61.30;;;;;;5078003;28;20706;-72
2022/05/24 09:13:28;;;;;;;;;;;30.80;61.40;;;;;;5098777;28;19911;-71
2022/05/24 09:15:57;;;;;;;;;;;31.00;60.20;;;;;;5096828;28;19983;-71
2022/05/24 09:18:23;;;;;;;;;;;30.80;57.20;;;;;;5097420;28;19912;-72
2022/05/24 09:20:48;;;;;;;;;;;30.50;58.60;;;;;;5098498;28;19920;-71
2022/05/24 09:23:24;;;;;;;;;;;30.00;58.50;;;;;;5090945;28;19917;-71
2022/05/24 09:25:53;;;;;;;;;;;29.80;59.40;;;;;;5088287;28;19912;-71
2022/05/24 09:28:19;;;;;;;;;;;29.80;58.50;;;;;;5088321;28;19908;-71
2022/05/24 09:30:45;;;;;;;;;;;28.90;56.80;;;;;;5095795;28;20337;-71
2022/05/24 09:33:29;;;;;;;;;;;29.00;58.70;;;;;;5088725;28;19918;-74
2022/05/24 09:35:57;;;;;;;;;;;29.00;56.20;;;;;;5098763;28;20313;-72
2022/05/24 09:38:27;;;;;;;;;;;28.20;55.30;;;;;;5097359;28;19937;-73
2022/05/24 09:40:55;;;;;;;;;;;27.10;55.30;;;;;;5094133;28;20339;-71
2022/05/24 09:43:41;;;;;;;;;;;26.00;55.10;;;;;;5080076;28;19919;-70
2022/05/24 09:46:18;;;;;;;;;;;24.90;55.40;;;;;;5079751;28;19911;-69
2022/05/24 09:48:52;;;;;;;;;;;24.00;55.90;;;;;;5104508;28;19973;-71
2022/05/24 09:51:23;;;;;;;;;;;24.30;58.40;;;;;;5107795;28;19916;-71
2022/05/24 09:53:52;;;;;;;;;;;25.70;58.70;;;;;;5108016;28;19951;-73
2022/05/24 09:56:26;;;;;;;;;;;26.90;57.90;;;;;;5108004;28;19972;-73
2022/05/24 09:58:57;;;;;;;;;;;26.90;56.70;;;;;;5090014;28;20266;-71
2022/05/24 10:01:30;;;;;;;;;;;26.40;55.20;;;;;;5107519;28;19923;-72
2022/05/24 10:04:08;;;;;;;;;;;25.80;55.10;;;;;;5108063;28;20022;-72
2022/05/24 10:06:34;;;;;;;;;;;25.30;55.80;;;;;;5107958;28;19939;-71
2022/05/24 10:09:09;;;;;;;;;;;24.90;54.70;;;;;;5107864;28;19970;-72
2022/05/24 10:11:40;;;;;;;;;;;24.50;55.10;;;;;;5108099;28;19955;-71
2022/05/24 10:14:19;;;;;;;;;;;24.00;55.00;;;;;;5108075;28;19976;-72
2022/05/24 10:16:47;;;;;;;;;;;23.50;55.30;;;;;;5108246;28;19931;-73
2022/05/24 10:19:26;;;;;;;;;;;23.10;55.70;;;;;;5108162;28;20002;-72
2022/05/24 10:22:00;;;;;;;;;;;22.70;56.10;;;;;;5092435;28;19968;-71
2022/05/24 10:24:41;;;;;;;;;;;22.30;55.60;;;;;;5112253;28;19990;-72
2022/05/24 10:27:13;;;;;;;;;;;22.00;55.20;;;;;;5111755;28;20259;-70
2022/05/24 10:29:58;;;;;;;;;;;21.90;55.30;;;;;;5111534;28;20323;-72
2022/05/24 10:38:39;;;;;;;;;;;23.80;56.00;;;;;;5111682;28;20022;-72
2022/05/24 10:41:24;;;;;;;;;;;24.40;55.90;;;;;;5093241;28;20343;-72
2022/05/24 10:43:58;;;;;;;;;;;24.80;54.70;;;;;;5110740;28;19912;-73
2022/05/24 10:46:30;;;;;;;;;;;25.30;55.80;;;;;;5093072;28;20327;-72
2022/05/24 10:49:07;;;;;;;;;;;25.90;55.20;;;;;;5111172;28;19974;-72
2022/05/24 10:51:40;;;;;;;;;;;26.20;54.50;;;;;;5111211;28;20010;-72
2022/05/24 10:54:21;;;;;;;;;;;26.30;54.20;;;;;;5110986;28;19908;-71
2022/05/24 10:56:48;;;;;;;;;;;26.30;53.30;;;;;;5111119;28;19915;-71
2022/05/24 10:59:21;;;;;;;;;;;26.40;54.30;;;;;;5110368;28;19916;-61
2022/05/24 11:01:58;;;;;;;;;;;27.20;55.60;;;;;;5104392;28;20277;-72
2022/05/24 11:04:26;;;;;;;;;;;28.50;54.40;;;;;;5099181;28;19915;-73
2022/05/24 11:06:58;;;;;;;;;;;29.70;54.30;;;;;;5099247;28;19912;-72
2022/05/24 11:09:25;;;;;;;;;;;30.00;53.50;;;;;;5093048;28;19916;-72
2022/05/24 11:11:53;;;;;;;;;;;29.70;51.10;;;;;;5101633;28;19912;-72
2022/05/24 11:14:28;;;;;;;;;;;28.70;50.80;;;;;;5098878;28;19908;-72
2022/05/24 11:16:54;;;;;;;;;;;27.60;51.20;;;;;;5092813;28;20289;-72
2022/05/24 11:19:31;;;;;;;;;;;26.40;50.70;;;;;;5096553;28;20079;-73
2022/05/24 11:22:00;;;;;;;;;;;25.50;51.30;;;;;;5089328;28;19937;-72
2022/05/24 11:24:32;;;;;;;;;;;24.90;50.80;;;;;;5110700;28;20031;-72
2022/05/24 11:27:00;;;;;;;;;;;24.50;51.40;;;;;;5110399;28;19931;-72
2022/05/24 11:29:33;;;;;;;;;;;24.00;51.80;;;;;;5091460;28;20416;-73
2022/05/24 11:32:01;;;;;;;;;;;23.40;52.10;;;;;;5097433;28;19908;-73
2022/05/24 11:34:31;;;;;;;;;;;23.10;52.20;;;;;;5100082;28;19923;-71
2022/05/24 11:37:15;;;;;;;;;;;22.70;52.70;;;;;;5100115;28;19943;-71
2022/05/24 11:39:42;;;;;;;;;;;22.40;53.20;;;;;;5099443;28;20006;-71
2022/05/24 11:42:20;;;;;;;;;;;22.30;54.10;;;;;;5097706;28;19912;-71
2022/05/24 11:44:45;;;;;;;;;;;23.10;55.60;;;;;;5095288;28;20394;-71
2022/05/24 11:47:30;;;;;;;;;;;24.40;55.30;;;;;;5079566;28;20002;-71
2022/05/24 11:49:57;;;;;;;;;;;24.90;55.20;;;;;;5100003;28;19919;-72
2022/05/24 11:52:41;;;;;;;;;;;25.70;55.90;;;;;;5098658;28;19912;-71
2022/05/24 11:55:08;;;;;;;;;;;26.50;55.50;;;;;;5097706;28;20006;-71
2022/05/24 11:57:41;;;;;;;;;;;27.50;55.50;;;;;;5099550;28;19920;-72
2022/05/24 12:00:08;;;;;;;;;;;27.60;53.30;;;;;;5098869;28;19916;-72
2022/05/24 12:07:54;;;;;;;;;;;27.30;52.60;;;;;;5101062;28;19922;-72
2022/05/24 12:08:26;;;;;;;;;;;26.50;52.40;;;;;;5099693;28;19947;-72
2022/05/24 12:10:55;;;;;;;;;;;26.40;51.70;;;;;;5096846;28;19998;-72
2022/05/24 12:13:39;;;;;;;;;;;26.20;51.80;;;;;;5101000;28;20431;-74
2022/05/24 12:16:06;;;;;;;;;;;26.10;51.50;;;;;;5098129;28;19908;-75
2022/05/24 12:18:37;;;;;;;;;;;25.90;51.30;;;;;;5098247;28;19911;-73
2022/05/24 12:21:02;;;;;;;;;;;25.80;51.10;;;;;;5097642;28;19914;-74
2022/05/24 12:23:36;;;;;;;;;;;25.80;51.50;;;;;;5080674;28;19912;-73
2022/05/24 12:26:08;;;;;;;;;;;25.90;51.10;;;;;;5099818;28;19961;-73
2022/05/24 12:28:37;;;;;;;;;;;25.90;50.50;;;;;;5078102;28;20379;-73
2022/05/24 12:31:14;;;;;;;;;;;25.90;50.90;;;;;;5070094;28;19916;-73
2022/05/24 12:33:46;;;;;;;;;;;26.20;51.70;;;;;;5088854;28;19916;-73
2022/05/24 12:36:15;;;;;;;;;;;26.40;52.50;;;;;;5088685;28;19908;-72
2022/05/24 12:38:46;;;;;;;;;;;27.10;52.70;;;;;;5089006;28;19985;-74
2022/05/24 12:41:27;;;;;;;;;;;27.60;52.20;;;;;;5088879;28;19916;-73
2022/05/24 12:43:55;;;;;;;;;;;28.10;51.80;;;;;;5088233;28;19995;-73
2022/05/24 12:46:21;;;;;;;;;;;28.20;50.60;;;;;;5070458;28;20288;-73
2022/05/24 12:48:50;;;;;;;;;;;27.60;50.00;;;;;;5088561;28;19924;-73
2022/05/24 12:51:19;;;;;;;;;;;26.90;50.10;;;;;;5088825;28;20049;-73
2022/05/24 12:53:45;;;;;;;;;;;26.80;50.80;;;;;;5088695;28;19930;-72
2022/05/24 12:56:21;;;;;;;;;;;27.20;51.50;;;;;;5088243;28;19912;-73
2022/05/24 12:58:49;;;;;;;;;;;27.40;51.40;;;;;;5088015;28;19916;-72
2022/05/24 13:01:24;;;;;;;;;;;27.40;50.60;;;;;;5088338;28;19958;-74
2022/05/24 13:03:51;;;;;;;;;;;27.30;50.40;;;;;;5087976;28;20377;-73
2022/05/24 13:06:24;;;;;;;;;;;27.30;51.00;;;;;;5088156;28;19927;-72
2022/05/24 13:09:08;;;;;;;;;;;27.40;50.60;;;;;;5088311;28;19908;-72
2022/05/24 13:11:35;;;;;;;;;;;27.30;50.40;;;;;;5087921;28;19908;-73
2022/05/24 13:14:01;;;;;;;;;;;27.30;50.20;;;;;;5088154;28;19912;-72
2022/05/24 13:16:26;;;;;;;;;;;27.10;49.40;;;;;;5088085;28;19916;-72
2022/05/24 13:18:53;;;;;;;;;;;26.50;48.40;;;;;;5087847;28;20392;-72
2022/05/24 13:21:22;;;;;;;;;;;25.90;48.80;;;;;;5087754;28;19941;-72
2022/05/24 13:23:48;;;;;;;;;;;25.50;48.70;;;;;;5087919;28;19977;-72
2022/05/24 13:26:16;;;;;;;;;;;25.10;48.20;;;;;;5088210;28;19908;-71
2022/05/24 13:28:41;;;;;;;;;;;24.90;48.70;;;;;;5088263;28;20396;-73
2022/05/24 13:34:00;;;;;;;;;;;24.30;49.40;;;;;;5090942;28;19949;-71
2022/05/24 13:36:29;;;;;;;;;;;23.30;50.00;;;;;;5095864;28;19954;-71
2022/05/24 13:39:04;;;;;;;;;;;22.60;51.00;;;;;;5097273;28;19955;-72
2022/05/24 13:41:52;;;;;;;;;;;22.30;51.70;;;;;;5099097;28;19909;-72
2022/05/24 13:44:26;;;;;;;;;;;22.10;51.80;;;;;;5098912;28;19943;-72
2022/05/24 13:47:00;;;;;;;;;;;22.10;52.30;;;;;;5098674;28;19923;-72
2022/05/24 13:49:35;;;;;;;;;;;22.20;52.50;;;;;;5096451;28;19946;-73
2022/05/24 13:52:18;;;;;;;;;;;22.20;52.40;;;;;;5096410;28;19952;-72
2022/05/24 13:54:43;;;;;;;;;;;22.10;52.70;;;;;;5102088;28;20262;-73
2022/05/24 13:57:29;;;;;;;;;;;22.30;52.70;;;;;;5106132;28;19923;-72
2022/05/24 14:00:09;;;;;;;;;;;22.50;52.50;;;;;;5097591;28;19927;-72
2022/05/24 14:02:35;;;;;;;;;;;22.20;52.50;;;;;;5090263;28;19916;-72
2022/05/24 14:05:01;;;;;;;;;;;22.00;52.90;;;;;;5072188;28;19916;-72
2022/05/24 14:07:28;;;;;;;;;;;22.10;52.80;;;;;;5090011;28;19995;-73
2022/05/24 14:09:54;;;;;;;;;;;22.20;52.80;;;;;;5090261;28;19970;-73
2022/05/24 14:12:20;;;;;;;;;;;22.40;52.70;;;;;;5090187;28;19940;-72
2022/05/24 14:14:46;;;;;;;;;;;22.50;52.20;;;;;;5071353;28;20038;-73
2022/05/24 14:17:12;;;;;;;;;;;22.50;52.20;;;;;;5072320;28;20473;-74
2022/05/24 14:19:38;;;;;;;;;;;22.50;52.20;;;;;;5073446;28;20010;-73
2022/05/24 14:22:03;;;;;;;;;;;22.50;52.10;;;;;;5091713;28;19908;-73
2022/05/24 14:24:29;;;;;;;;;;;22.70;52.20;;;;;;5091306;28;19916;-73
2022/05/24 14:26:56;;;;;;;;;;;22.90;51.80;;;;;;5091293;28;19923;-75
2022/05/24 14:29:23;;;;;;;;;;;23.00;51.50;;;;;;5091009;28;19919;-73
2022/05/24 14:31:49;;;;;;;;;;;22.90;51.50;;;;;;5091862;28;19916;-73
2022/05/24 14:34:15;;;;;;;;;;;22.90;51.60;;;;;;5091403;28;20305;-73
2022/05/24 14:36:41;;;;;;;;;;;22.80;51.50;;;;;;5091278;28;19999;-74
2022/05/24 14:39:07;;;;;;;;;;;22.90;51.20;;;;;;5090845;28;20023;-73
2022/05/24 14:41:34;;;;;;;;;;;23.10;51.10;;;;;;5072788;28;20467;-73
2022/05/24 14:44:03;;;;;;;;;;;23.10;51.00;;;;;;5072249;28;19908;-72
2022/05/24 14:46:29;;;;;;;;;;;23.10;51.10;;;;;;5091020;28;20243;-71
2022/05/24 14:48:55;;;;;;;;;;;23.10;51.10;;;;;;5090584;28;19920;-73
2022/05/24 14:51:26;;;;;;;;;;;23.20;50.90;;;;;;5090563;28;19915;-73
2022/05/24 14:53:52;;;;;;;;;;;23.20;50.40;;;;;;5096958;28;19912;-74
2022/05/24 14:56:17;;;;;;;;;;;23.10;50.50;;;;;;5103632;28;19935;-74
2022/05/24 14:58:43;;;;;;;;;;;23.00;50.50;;;;;;5100700;28;19919;-72
2022/05/24 15:01:08;;;;;;;;;;;22.90;50.00;;;;;;5099182;28;19912;-72
2022/05/24 15:03:34;;;;;;;;;;;22.70;50.20;;;;;;5082886;28;19915;-73
2022/05/24 15:06:00;;;;;;;;;;;22.70;50.30;;;;;;5100493;28;20278;-73